Time;durP1;ratioP1;P1;durP2;ratioP2;P2;SDS_P1;SDS_P2;PMS_P1;PMS_P2;Temp;Humidity;BMP_temperature;BMP_pressure;BME280_temperature;BME280_humidity;BME280_pressure;Samples;Min_cycle;Max_cycle;Signal;HPM_P1;HPM_P2
2022/12/14 00:01:34;;;;;;;1.00;1.00;;;;;;;;;;6208754;23;20179;-79
2022/12/14 00:04:00;;;;;;;0.90;0.90;;;;;;;;;;6209533;22;20228;-80
2022/12/14 00:06:28;;;;;;;0.90;0.90;;;;;;;;;;6211608;23;20151;-80
2022/12/14 00:08:55;;;;;;;1.00;1.00;;;;;;;;;;6211056;23;20155;-78
2022/12/14 00:11:21;;;;;;;0.90;0.90;;;;;;;;;;6212040;23;20152;-78
2022/12/14 00:13:50;;;;;;;0.90;0.90;;;;;;;;;;6215470;22;20682;-79
2022/12/14 00:16:17;;;;;;;1.00;1.00;;;;;;;;;;6210439;23;20209;-78
2022/12/14 00:18:43;;;;;;;0.90;0.90;;;;;;;;;;6163524;22;1066633;-75
2022/12/14 00:21:10;;;;;;;0.90;0.90;;;;;;;;;;6185319;23;20152;-76
2022/12/14 00:23:37;;;;;;;0.93;0.93;;;;;;;;;;6184100;22;20238;-76
2022/12/14 00:26:07;;;;;;;1.00;1.00;;;;;;;;;;6187085;23;20160;-76
2022/12/14 00:28:33;;;;;;;1.00;1.00;;;;;;;;;;6187135;23;20152;-76
2022/12/14 00:30:59;;;;;;;0.90;0.90;;;;;;;;;;6191271;23;20267;-76
2022/12/14 00:33:25;;;;;;;1.00;1.00;;;;;;;;;;6183330;22;20269;-77
2022/12/14 00:35:51;;;;;;;0.93;0.93;;;;;;;;;;6180139;23;20211;-75
2022/12/14 00:38:17;;;;;;;1.00;1.00;;;;;;;;;;6180208;23;20153;-75
2022/12/14 00:40:43;;;;;;;1.00;1.00;;;;;;;;;;6179808;23;20176;-75
2022/12/14 00:43:09;;;;;;;0.90;0.90;;;;;;;;;;6179429;22;20199;-75
2022/12/14 00:45:34;;;;;;;1.00;1.00;;;;;;;;;;6180157;23;20155;-76
2022/12/14 00:48:01;;;;;;;1.00;1.00;;;;;;;;;;6179830;23;20205;-76
2022/12/14 00:50:27;;;;;;;0.90;0.90;;;;;;;;;;6179786;23;20602;-75
2022/12/14 00:52:53;;;;;;;0.90;0.90;;;;;;;;;;6179304;22;20199;-75
2022/12/14 00:55:19;;;;;;;0.90;0.90;;;;;;;;;;6180121;23;20180;-76
2022/12/14 00:57:45;;;;;;;1.00;1.00;;;;;;;;;;6179979;23;20167;-74
2022/12/14 01:00:11;;;;;;;1.00;1.00;;;;;;;;;;6180019;23;20239;-73
2022/12/14 01:02:37;;;;;;;1.00;1.00;;;;;;;;;;6179390;22;20206;-74
2022/12/14 01:05:03;;;;;;;0.90;0.90;;;;;;;;;;6179752;23;20156;-74
2022/12/14 01:07:29;;;;;;;1.03;1.03;;;;;;;;;;6180119;23;20155;-74
2022/12/14 01:09:55;;;;;;;1.00;1.00;;;;;;;;;;6180011;23;20833;-74
2022/12/14 01:12:21;;;;;;;1.00;1.00;;;;;;;;;;6178997;23;20231;-75
2022/12/14 01:14:48;;;;;;;1.00;1.00;;;;;;;;;;6179583;23;20152;-75
2022/12/14 01:17:14;;;;;;;0.90;0.90;;;;;;;;;;6179960;23;20316;-76
2022/12/14 01:19:40;;;;;;;0.90;0.90;;;;;;;;;;6179740;23;20168;-75
2022/12/14 01:22:06;;;;;;;0.90;0.90;;;;;;;;;;6179267;23;20152;-75
2022/12/14 01:24:32;;;;;;;0.93;0.93;;;;;;;;;;6179505;22;20240;-75
2022/12/14 01:26:58;;;;;;;1.00;1.00;;;;;;;;;;6180010;23;20600;-77
2022/12/14 01:29:24;;;;;;;1.00;1.00;;;;;;;;;;6180031;23;20151;-77
2022/12/14 01:31:50;;;;;;;0.97;0.97;;;;;;;;;;6180011;23;20606;-76
2022/12/14 01:34:16;;;;;;;1.00;1.00;;;;;;;;;;6179164;22;20164;-77
2022/12/14 01:36:42;;;;;;;1.00;1.00;;;;;;;;;;6179896;23;20188;-75
2022/12/14 01:39:12;;;;;;;0.90;0.90;;;;;;;;;;6179682;23;20198;-76
2022/12/14 01:41:48;;;;;;;0.93;0.93;;;;;;;;;;6180378;23;20571;-76
2022/12/14 01:44:17;;;;;;;1.00;1.00;;;;;;;;;;6179284;22;20191;-76
2022/12/14 01:46:53;;;;;;;1.00;1.00;;;;;;;;;;6179556;23;20156;-76
2022/12/14 01:49:22;;;;;;;1.00;1.00;;;;;;;;;;6179601;23;20181;-76
2022/12/14 01:51:53;;;;;;;0.90;0.90;;;;;;;;;;6179579;23;20602;-76
2022/12/14 01:54:20;;;;;;;0.80;0.80;;;;;;;;;;6178796;22;20664;-75
2022/12/14 01:56:46;;;;;;;1.00;1.00;;;;;;;;;;6179574;23;20194;-76
2022/12/14 01:59:16;;;;;;;0.90;0.90;;;;;;;;;;6179463;23;20147;-75
2022/12/14 02:01:42;;;;;;;1.03;1.03;;;;;;;;;;6179480;23;20163;-76
2022/12/14 02:04:08;;;;;;;1.10;1.10;;;;;;;;;;6178884;22;20172;-76
2022/12/14 02:06:36;;;;;;;1.00;1.00;;;;;;;;;;6179472;23;20152;-76
2022/12/14 02:09:04;;;;;;;1.00;1.00;;;;;;;;;;6179446;23;20484;-76
2022/12/14 02:11:43;;;;;;;0.80;0.80;;;;;;;;;;6179644;23;20634;-75
2022/12/14 02:14:09;;;;;;;0.97;0.97;;;;;;;;;;6178367;22;20634;-75
2022/12/14 02:16:35;;;;;;;1.00;1.00;;;;;;;;;;6179068;23;20198;-75
2022/12/14 02:19:01;;;;;;;0.90;0.90;;;;;;;;;;6179321;23;20187;-75
2022/12/14 02:21:39;;;;;;;0.87;0.87;;;;;;;;;;6179235;23;20168;-76
2022/12/14 02:24:05;;;;;;;0.90;0.90;;;;;;;;;;6178633;22;20185;-76
2022/12/14 02:26:31;;;;;;;1.00;1.00;;;;;;;;;;6180093;23;20156;-76
2022/12/14 02:29:00;;;;;;;0.90;0.90;;;;;;;;;;6180702;23;20156;-76
2022/12/14 02:31:33;;;;;;;0.90;0.90;;;;;;;;;;6180732;23;20213;-76
2022/12/14 02:34:07;;;;;;;1.00;1.00;;;;;;;;;;6179629;22;20509;-76
2022/12/14 02:36:39;;;;;;;0.90;0.90;;;;;;;;;;6180606;23;20183;-76
2022/12/14 02:39:05;;;;;;;1.00;1.00;;;;;;;;;;6180905;23;20273;-76
2022/12/14 02:41:44;;;;;;;1.00;1.00;;;;;;;;;;6180721;23;20184;-76
2022/12/14 02:44:21;;;;;;;0.90;0.90;;;;;;;;;;6180158;22;20179;-76
2022/12/14 02:46:47;;;;;;;0.90;0.90;;;;;;;;;;6180717;23;20214;-76
2022/12/14 02:49:25;;;;;;;0.90;0.90;;;;;;;;;;6180780;23;20252;-76
2022/12/14 02:51:57;;;;;;;0.93;0.93;;;;;;;;;;6180562;23;20608;-76
2022/12/14 02:54:32;;;;;;;0.90;0.90;;;;;;;;;;6180398;22;20171;-76
2022/12/14 02:57:18;;;;;;;1.00;1.00;;;;;;;;;;6180082;23;20570;-75
2022/12/14 02:59:45;;;;;;;1.00;1.00;;;;;;;;;;6226679;22;20629;-76
2022/12/14 03:02:12;;;;;;;0.90;0.90;;;;;;;;;;6179566;23;20236;-76
2022/12/14 03:04:46;;;;;;;0.90;0.90;;;;;;;;;;6180036;22;20168;-77
2022/12/14 03:07:33;;;;;;;0.90;0.90;;;;;;;;;;6180360;23;20143;-76
2022/12/14 03:10:05;;;;;;;0.90;0.90;;;;;;;;;;6180301;23;20156;-77
2022/12/14 03:12:32;;;;;;;1.00;1.00;;;;;;;;;;6179195;22;20155;-76
2022/12/14 03:14:58;;;;;;;0.90;0.90;;;;;;;;;;6179929;23;20179;-76
2022/12/14 03:17:25;;;;;;;1.00;1.00;;;;;;;;;;6179484;23;20270;-76
2022/12/14 03:19:54;;;;;;;1.00;1.00;;;;;;;;;;6179655;23;20262;-77
2022/12/14 03:22:23;;;;;;;1.00;1.00;;;;;;;;;;6179347;23;20231;-76
2022/12/14 03:24:51;;;;;;;0.90;0.90;;;;;;;;;;6179809;23;20156;-76
2022/12/14 03:27:23;;;;;;;0.90;0.90;;;;;;;;;;6179977;23;20156;-76
2022/12/14 03:29:54;;;;;;;1.00;1.00;;;;;;;;;;6179888;23;20155;-76
2022/12/14 03:32:22;;;;;;;1.00;1.00;;;;;;;;;;6179296;23;20153;-76
2022/12/14 03:35:08;;;;;;;1.00;1.00;;;;;;;;;;6179537;23;20894;-76
2022/12/14 03:37:38;;;;;;;1.00;1.00;;;;;;;;;;6179100;23;20159;-76
2022/12/14 03:40:07;;;;;;;0.90;0.90;;;;;;;;;;6179706;23;20612;-76
2022/12/14 03:42:43;;;;;;;1.00;1.00;;;;;;;;;;6178985;22;20177;-76
2022/12/14 03:45:21;;;;;;;1.03;1.03;;;;;;;;;;6180075;23;20144;-76
2022/12/14 03:47:53;;;;;;;1.00;1.00;;;;;;;;;;6179814;23;20667;-76
2022/12/14 03:50:19;;;;;;;0.90;0.90;;;;;;;;;;6180331;23;20173;-76
2022/12/14 03:52:58;;;;;;;0.90;0.90;;;;;;;;;;6180154;22;20176;-76
2022/12/14 03:55:43;;;;;;;1.10;1.10;;;;;;;;;;6183008;23;20628;-76
2022/12/14 03:58:17;;;;;;;1.00;1.00;;;;;;;;;;6186077;23;20151;-76
2022/12/14 04:00:51;;;;;;;0.90;0.90;;;;;;;;;;6183142;23;20164;-78
2022/12/14 04:03:39;;;;;;;1.00;1.00;;;;;;;;;;6179233;22;20172;-76
2022/12/14 04:06:07;;;;;;;0.90;0.90;;;;;;;;;;6179529;23;20148;-76
2022/12/14 04:08:38;;;;;;;1.00;1.00;;;;;;;;;;6179527;23;20210;-76
2022/12/14 04:19:30;;;;;;;1.00;1.00;;;;;;;;;;6179564;23;20182;-76
2022/12/14 04:21:58;;;;;;;1.00;1.00;;;;;;;;;;6179361;23;20460;-77
2022/12/14 04:27:32;;;;;;;1.00;1.00;;;;;;;;;;6179676;23;20178;-76
2022/12/14 04:30:00;;;;;;;1.00;1.00;;;;;;;;;;6179647;23;20590;-75
2022/12/14 04:32:28;;;;;;;1.07;1.07;;;;;;;;;;6179041;22;20163;-76
2022/12/14 04:34:59;;;;;;;0.90;0.90;;;;;;;;;;6179697;23;20177;-74
2022/12/14 04:37:26;;;;;;;1.00;1.00;;;;;;;;;;6179772;23;20190;-74
2022/12/14 04:39:58;;;;;;;1.00;1.00;;;;;;;;;;6179445;23;20530;-76
2022/12/14 04:42:27;;;;;;;1.00;1.00;;;;;;;;;;6178798;22;20625;-75
2022/12/14 04:44:56;;;;;;;1.00;1.00;;;;;;;;;;6179652;23;20171;-75
2022/12/14 04:47:26;;;;;;;0.83;0.83;;;;;;;;;;6179742;23;20177;-75
2022/12/14 04:49:54;;;;;;;1.00;1.00;;;;;;;;;;6178687;23;20160;-74
2022/12/14 04:52:23;;;;;;;0.90;0.90;;;;;;;;;;6179124;23;20163;-76
2022/12/14 04:54:52;;;;;;;0.90;0.90;;;;;;;;;;6179731;23;20152;-75
2022/12/14 04:57:26;;;;;;;1.00;1.00;;;;;;;;;;6179335;23;20188;-75
2022/12/14 04:59:53;;;;;;;0.97;0.97;;;;;;;;;;6180096;23;20144;-75
2022/12/14 05:02:28;;;;;;;1.00;1.00;;;;;;;;;;6179163;23;20176;-75
2022/12/14 05:05:14;;;;;;;1.10;1.10;;;;;;;;;;6179525;23;20171;-75
2022/12/14 05:07:40;;;;;;;0.90;0.90;;;;;;;;;;6179335;22;20163;-74
2022/12/14 05:10:11;;;;;;;0.90;0.90;;;;;;;;;;6179546;23;20632;-74
2022/12/14 05:12:46;;;;;;;1.00;1.00;;;;;;;;;;6178545;22;20151;-74
2022/12/14 05:15:14;;;;;;;1.00;1.00;;;;;;;;;;6178878;23;20147;-74
2022/12/14 05:17:41;;;;;;;0.90;0.90;;;;;;;;;;6179051;23;20190;-74
2022/12/14 05:20:20;;;;;;;0.93;0.93;;;;;;;;;;6179033;23;20176;-74
2022/12/14 05:22:46;;;;;;;1.00;1.00;;;;;;;;;;6178840;22;20175;-73
2022/12/14 05:25:13;;;;;;;1.00;1.00;;;;;;;;;;6179113;23;20586;-74
2022/12/14 05:27:39;;;;;;;0.97;0.97;;;;;;;;;;6179329;23;20152;-73
2022/12/14 05:30:05;;;;;;;0.90;0.90;;;;;;;;;;6179352;23;20175;-75
2022/12/14 05:32:32;;;;;;;0.90;0.90;;;;;;;;;;6178465;22;20152;-74
2022/12/14 05:34:58;;;;;;;0.90;0.90;;;;;;;;;;6178936;23;20552;-74
2022/12/14 05:37:24;;;;;;;1.00;1.00;;;;;;;;;;6179205;23;20247;-75
2022/12/14 05:39:50;;;;;;;1.00;1.00;;;;;;;;;;6179319;23;20450;-75
2022/12/14 05:42:16;;;;;;;0.90;0.90;;;;;;;;;;6178378;23;20693;-75
2022/12/14 05:44:42;;;;;;;0.97;0.97;;;;;;;;;;6179110;22;20176;-75
2022/12/14 05:47:09;;;;;;;1.00;1.00;;;;;;;;;;6179274;23;20457;-75
2022/12/14 05:49:35;;;;;;;1.00;1.00;;;;;;;;;;6179481;23;20160;-74
2022/12/14 05:52:01;;;;;;;1.03;1.03;;;;;;;;;;6178679;23;20205;-75
2022/12/14 05:54:27;;;;;;;1.00;1.00;;;;;;;;;;6178998;22;20176;-74
2022/12/14 05:56:53;;;;;;;1.00;1.00;;;;;;;;;;6178690;23;20218;-75
2022/12/14 05:59:19;;;;;;;1.00;1.00;;;;;;;;;;6178935;23;20226;-75
2022/12/14 06:01:45;;;;;;;1.00;1.00;;;;;;;;;;6180013;23;20152;-75
2022/12/14 06:04:12;;;;;;;1.00;1.00;;;;;;;;;;6179572;22;20174;-75
2022/12/14 06:06:38;;;;;;;0.90;0.90;;;;;;;;;;6180322;23;20164;-75
2022/12/14 06:09:08;;;;;;;1.00;1.00;;;;;;;;;;6179740;23;20156;-75
2022/12/14 06:11:37;;;;;;;0.90;0.90;;;;;;;;;;6179808;23;20482;-75
2022/12/14 06:14:03;;;;;;;0.93;0.93;;;;;;;;;;6179617;22;20256;-75
2022/12/14 06:16:28;;;;;;;1.00;1.00;;;;;;;;;;6179826;23;20215;-75
2022/12/14 06:18:56;;;;;;;0.90;0.90;;;;;;;;;;6180671;23;20148;-75
2022/12/14 06:21:24;;;;;;;0.90;0.90;;;;;;;;;;6180286;23;20239;-75
2022/12/14 06:23:50;;;;;;;0.97;0.97;;;;;;;;;;6178959;22;20634;-75
2022/12/14 06:26:16;;;;;;;1.00;1.00;;;;;;;;;;6180089;23;20199;-74
2022/12/14 06:28:43;;;;;;;0.90;0.90;;;;;;;;;;6180255;23;20226;-74
2022/12/14 06:31:14;;;;;;;1.00;1.00;;;;;;;;;;6180211;23;20163;-75
2022/12/14 06:33:40;;;;;;;0.90;0.90;;;;;;;;;;6179696;22;20175;-75
2022/12/14 06:36:06;;;;;;;1.00;1.00;;;;;;;;;;6180585;23;20218;-74
2022/12/14 06:38:34;;;;;;;0.90;0.90;;;;;;;;;;6180113;23;20182;-74
2022/12/14 06:41:00;;;;;;;0.80;0.80;;;;;;;;;;6179999;23;20152;-74
2022/12/14 06:43:26;;;;;;;0.90;0.90;;;;;;;;;;6179677;22;20187;-76
2022/12/14 06:45:52;;;;;;;0.90;0.90;;;;;;;;;;6180560;23;20265;-74
2022/12/14 06:48:18;;;;;;;1.00;1.00;;;;;;;;;;6180775;23;20156;-76
2022/12/14 06:50:44;;;;;;;0.80;0.80;;;;;;;;;;6180313;23;20252;-76
2022/12/14 06:53:12;;;;;;;0.90;0.90;;;;;;;;;;6179524;22;20187;-76
2022/12/14 06:55:38;;;;;;;0.90;0.90;;;;;;;;;;6190095;23;20194;-77
2022/12/14 06:58:04;;;;;;;0.90;0.90;;;;;;;;;;6192524;23;20156;-75
2022/12/14 07:00:30;;;;;;;1.00;1.00;;;;;;;;;;6186271;23;20603;-75
2022/12/14 07:02:56;;;;;;;0.90;0.90;;;;;;;;;;6178964;22;20176;-75
2022/12/14 07:05:22;;;;;;;0.90;0.90;;;;;;;;;;6179597;23;20148;-74
2022/12/14 07:07:48;;;;;;;0.97;0.97;;;;;;;;;;6180055;23;20156;-74
2022/12/14 07:10:14;;;;;;;0.80;0.80;;;;;;;;;;6179304;23;20179;-75
2022/12/14 07:12:40;;;;;;;0.90;0.90;;;;;;;;;;6178521;22;20148;-75
2022/12/14 07:15:06;;;;;;;0.80;0.80;;;;;;;;;;6179740;23;20194;-75
2022/12/14 07:17:34;;;;;;;0.90;0.90;;;;;;;;;;6179756;23;20278;-75
2022/12/14 07:20:00;;;;;;;1.00;1.00;;;;;;;;;;6179603;23;20167;-75
2022/12/14 07:22:26;;;;;;;1.00;1.00;;;;;;;;;;6179223;22;20155;-76
2022/12/14 07:24:52;;;;;;;0.90;0.90;;;;;;;;;;6180260;23;20259;-76
2022/12/14 07:27:18;;;;;;;0.90;0.90;;;;;;;;;;6179700;23;20202;-75
2022/12/14 07:29:44;;;;;;;0.90;0.90;;;;;;;;;;6180716;23;20179;-75
2022/12/14 07:32:10;;;;;;;1.00;1.00;;;;;;;;;;6179848;23;20152;-76
2022/12/14 07:34:36;;;;;;;0.93;0.93;;;;;;;;;;6179594;22;20176;-76
2022/12/14 07:37:01;;;;;;;0.93;0.93;;;;;;;;;;6179967;23;20215;-76
2022/12/14 07:39:27;;;;;;;0.80;0.80;;;;;;;;;;6179692;23;20156;-76
2022/12/14 07:41:54;;;;;;;0.87;0.87;;;;;;;;;;6179537;23;20152;-75
2022/12/14 07:44:20;;;;;;;0.90;0.90;;;;;;;;;;6179852;22;20677;-75
2022/12/14 07:46:46;;;;;;;1.00;1.00;;;;;;;;;;6180206;23;20152;-75
2022/12/14 07:49:12;;;;;;;1.00;1.00;;;;;;;;;;6180069;23;20610;-75
2022/12/14 07:51:40;;;;;;;1.00;1.00;;;;;;;;;;6179806;23;20480;-76
2022/12/14 07:54:07;;;;;;;1.00;1.00;;;;;;;;;;6177292;22;20176;-75
2022/12/14 07:56:38;;;;;;;1.00;1.00;;;;;;;;;;6179751;23;20184;-78
2022/12/14 07:59:07;;;;;;;1.00;1.00;;;;;;;;;;6179845;23;20184;-78
2022/12/14 08:01:34;;;;;;;0.93;0.93;;;;;;;;;;6179624;23;20479;-77
2022/12/14 08:04:00;;;;;;;0.90;0.90;;;;;;;;;;6178611;22;20168;-76
2022/12/14 08:06:27;;;;;;;0.90;0.90;;;;;;;;;;6179335;23;20167;-75
2022/12/14 08:08:54;;;;;;;0.90;0.90;;;;;;;;;;6179391;23;20148;-76
2022/12/14 08:11:23;;;;;;;0.80;0.80;;;;;;;;;;6179558;23;20227;-76
2022/12/14 08:13:59;;;;;;;0.90;0.90;;;;;;;;;;6179142;22;20180;-76
2022/12/14 08:16:25;;;;;;;0.80;0.80;;;;;;;;;;6179362;23;20195;-76
2022/12/14 08:18:53;;;;;;;0.93;0.93;;;;;;;;;;6178325;23;20230;-75
2022/12/14 08:21:20;;;;;;;1.00;1.00;;;;;;;;;;6179438;23;20170;-75
2022/12/14 08:23:47;;;;;;;0.90;0.90;;;;;;;;;;6178518;22;20707;-75
2022/12/14 08:26:13;;;;;;;0.90;0.90;;;;;;;;;;6179689;23;20183;-75
2022/12/14 08:28:39;;;;;;;0.90;0.90;;;;;;;;;;6179923;23;20155;-76
2022/12/14 08:31:06;;;;;;;0.90;0.90;;;;;;;;;;6179925;23;20608;-75
2022/12/14 08:33:33;;;;;;;0.90;0.90;;;;;;;;;;6178711;22;20641;-76
2022/12/14 08:36:06;;;;;;;0.90;0.90;;;;;;;;;;6179582;23;20196;-75
2022/12/14 08:38:32;;;;;;;0.80;0.80;;;;;;;;;;6179605;23;20197;-75
2022/12/14 08:41:02;;;;;;;0.90;0.90;;;;;;;;;;6179371;23;20164;-77
2022/12/14 08:43:28;;;;;;;0.90;0.90;;;;;;;;;;6178731;22;20631;-79
2022/12/14 08:45:54;;;;;;;0.87;0.87;;;;;;;;;;6179663;23;20159;-75
2022/12/14 08:48:20;;;;;;;0.90;0.90;;;;;;;;;;6179937;23;20178;-75
2022/12/14 08:50:46;;;;;;;0.90;0.90;;;;;;;;;;6181870;23;20167;-75
2022/12/14 08:53:12;;;;;;;0.90;0.90;;;;;;;;;;6175893;22;20180;-75
2022/12/14 08:55:38;;;;;;;0.90;0.90;;;;;;;;;;6178944;23;20196;-78
2022/12/14 08:58:04;;;;;;;1.10;1.10;;;;;;;;;;6178881;23;20155;-77
2022/12/14 09:00:30;;;;;;;0.97;0.97;;;;;;;;;;6179708;23;20156;-76
2022/12/14 09:02:56;;;;;;;0.90;0.90;;;;;;;;;;6178991;22;20233;-76
2022/12/14 09:05:22;;;;;;;0.90;0.90;;;;;;;;;;6179456;23;20160;-76
2022/12/14 09:07:48;;;;;;;0.90;0.90;;;;;;;;;;6179711;23;20168;-77
2022/12/14 09:10:14;;;;;;;0.97;0.97;;;;;;;;;;6178516;23;20531;-77
2022/12/14 09:12:40;;;;;;;1.00;1.00;;;;;;;;;;6178805;22;20182;-75
2022/12/14 09:15:06;;;;;;;0.90;0.90;;;;;;;;;;6179472;23;20171;-75
2022/12/14 09:17:33;;;;;;;1.00;1.00;;;;;;;;;;6177366;23;20188;-76
2022/12/14 09:19:59;;;;;;;0.90;0.90;;;;;;;;;;6179175;23;20164;-76
2022/12/14 09:22:25;;;;;;;1.00;1.00;;;;;;;;;;6178605;22;20156;-76
2022/12/14 09:24:51;;;;;;;1.00;1.00;;;;;;;;;;6177934;23;20148;-75
2022/12/14 09:27:17;;;;;;;0.90;0.90;;;;;;;;;;6179101;23;20156;-76
2022/12/14 09:29:43;;;;;;;0.90;0.90;;;;;;;;;;6179164;23;20274;-76
2022/12/14 09:32:09;;;;;;;1.00;1.00;;;;;;;;;;6178691;23;20259;-76
2022/12/14 09:34:35;;;;;;;1.00;1.00;;;;;;;;;;6177638;22;20176;-77
2022/12/14 09:37:03;;;;;;;0.90;0.90;;;;;;;;;;6178145;23;20275;-76
2022/12/14 09:39:30;;;;;;;0.90;0.90;;;;;;;;;;6176037;23;20243;-77
2022/12/14 09:42:02;;;;;;;0.90;0.90;;;;;;;;;;6178472;23;20216;-77
2022/12/14 09:44:37;;;;;;;0.90;0.90;;;;;;;;;;6179103;22;20183;-77
2022/12/14 09:47:08;;;;;;;0.90;0.90;;;;;;;;;;6179219;23;20164;-76
2022/12/14 09:49:39;;;;;;;0.90;0.90;;;;;;;;;;6179152;23;20217;-76
2022/12/14 09:52:06;;;;;;;1.00;1.00;;;;;;;;;;6178660;23;20587;-76
2022/12/14 09:54:34;;;;;;;0.90;0.90;;;;;;;;;;6178806;22;20246;-77
2022/12/14 09:57:03;;;;;;;0.83;0.83;;;;;;;;;;6178813;23;20215;-76
2022/12/14 09:59:30;;;;;;;0.90;0.90;;;;;;;;;;6178840;23;20152;-76
2022/12/14 10:01:59;;;;;;;1.00;1.00;;;;;;;;;;6178265;23;20610;-76
2022/12/14 10:04:37;;;;;;;0.80;0.80;;;;;;;;;;6179610;22;20168;-76
2022/12/14 10:07:11;;;;;;;0.90;0.90;;;;;;;;;;6182649;23;20179;-75
2022/12/14 10:09:56;;;;;;;1.00;1.00;;;;;;;;;;6183321;23;20144;-76
2022/12/14 10:12:40;;;;;;;0.90;0.90;;;;;;;;;;6178673;22;20148;-77
2022/12/14 10:15:18;;;;;;;0.90;0.90;;;;;;;;;;6179499;23;20485;-76
2022/12/14 10:18:05;;;;;;;0.90;0.90;;;;;;;;;;6179515;23;20578;-77
2022/12/14 10:20:36;;;;;;;0.80;0.80;;;;;;;;;;6179019;23;20176;-76
2022/12/14 10:23:03;;;;;;;0.87;0.87;;;;;;;;;;6179637;22;20187;-77
2022/12/14 10:25:31;;;;;;;1.00;1.00;;;;;;;;;;6185354;23;20156;-77
2022/12/14 10:27:59;;;;;;;0.90;0.90;;;;;;;;;;6190355;23;20184;-74
2022/12/14 10:30:25;;;;;;;0.80;0.80;;;;;;;;;;6188790;23;20152;-74
2022/12/14 10:32:55;;;;;;;0.90;0.90;;;;;;;;;;6188636;22;20194;-75
2022/12/14 10:35:28;;;;;;;1.00;1.00;;;;;;;;;;6189426;23;20152;-75
2022/12/14 10:38:04;;;;;;;0.80;0.80;;;;;;;;;;6189869;23;20472;-74
2022/12/14 10:40:31;;;;;;;0.90;0.90;;;;;;;;;;6191603;23;20152;-75
2022/12/14 10:42:57;;;;;;;0.90;0.90;;;;;;;;;;6191175;22;20195;-75
2022/12/14 10:45:29;;;;;;;0.90;0.90;;;;;;;;;;6192244;23;20156;-75
2022/12/14 10:48:04;;;;;;;0.90;0.90;;;;;;;;;;6182982;23;20152;-76
2022/12/14 10:50:30;;;;;;;0.90;0.90;;;;;;;;;;6180157;23;20147;-76
2022/12/14 10:52:57;;;;;;;0.97;0.97;;;;;;;;;;6180072;22;20201;-74
2022/12/14 10:55:28;;;;;;;0.80;0.80;;;;;;;;;;6179868;23;20152;-75
2022/12/14 10:57:54;;;;;;;0.90;0.90;;;;;;;;;;6178896;23;20144;-76
2022/12/14 11:00:20;;;;;;;0.90;0.90;;;;;;;;;;6179910;23;20152;-75
2022/12/14 11:02:52;;;;;;;0.90;0.90;;;;;;;;;;6178701;22;20225;-76
2022/12/14 11:05:36;;;;;;;0.87;0.87;;;;;;;;;;6180145;23;20219;-76
2022/12/14 11:08:03;;;;;;;1.00;1.00;;;;;;;;;;6179924;23;20152;-77
2022/12/14 11:10:31;;;;;;;0.90;0.90;;;;;;;;;;6180124;23;20183;-75
2022/12/14 11:13:01;;;;;;;0.80;0.80;;;;;;;;;;6179149;22;20177;-76
2022/12/14 11:15:30;;;;;;;0.90;0.90;;;;;;;;;;6180038;23;20156;-75
2022/12/14 11:18:19;;;;;;;0.80;0.80;;;;;;;;;;6184658;23;20225;-76
2022/12/14 11:20:49;;;;;;;1.00;1.00;;;;;;;;;;6202005;22;20168;-76
2022/12/14 11:23:20;;;;;;;0.90;0.90;;;;;;;;;;6189130;22;20184;-76
2022/12/14 11:25:48;;;;;;;0.90;0.90;;;;;;;;;;6181682;23;20152;-76
2022/12/14 11:28:37;;;;;;;0.90;0.90;;;;;;;;;;6181319;23;20160;-76
2022/12/14 11:31:04;;;;;;;0.80;0.80;;;;;;;;;;6193014;22;20577;-76
2022/12/14 11:33:43;;;;;;;1.00;1.00;;;;;;;;;;6180351;22;20456;-76
2022/12/14 11:36:09;;;;;;;0.80;0.80;;;;;;;;;;6180543;23;20313;-76
2022/12/14 11:38:35;;;;;;;0.90;0.90;;;;;;;;;;6180026;23;20152;-77
2022/12/14 11:41:02;;;;;;;1.00;1.00;;;;;;;;;;6179762;23;20154;-76
2022/12/14 11:43:37;;;;;;;0.90;0.90;;;;;;;;;;6177058;22;20175;-74
2022/12/14 11:46:04;;;;;;;0.90;0.90;;;;;;;;;;6179370;23;20512;-75
2022/12/14 11:48:30;;;;;;;0.90;0.90;;;;;;;;;;6179833;23;20166;-74
2022/12/14 11:51:10;;;;;;;1.00;1.00;;;;;;;;;;6179463;23;20533;-74
2022/12/14 11:53:36;;;;;;;0.90;0.90;;;;;;;;;;6178501;22;20179;-74
2022/12/14 11:56:04;;;;;;;1.00;1.00;;;;;;;;;;6178976;23;20195;-75
2022/12/14 11:58:35;;;;;;;0.90;0.90;;;;;;;;;;6179466;23;20175;-74
2022/12/14 12:01:14;;;;;;;0.90;0.90;;;;;;;;;;6175996;23;20198;-75
2022/12/14 12:03:51;;;;;;;0.90;0.90;;;;;;;;;;6178358;22;20205;-75
2022/12/14 12:06:28;;;;;;;0.90;0.90;;;;;;;;;;6179358;23;20163;-75
2022/12/14 12:08:56;;;;;;;0.90;0.90;;;;;;;;;;6176747;23;20548;-75
2022/12/14 12:11:23;;;;;;;0.87;0.87;;;;;;;;;;6179191;23;20152;-75
2022/12/14 12:13:50;;;;;;;0.90;0.90;;;;;;;;;;6178129;22;20176;-74
2022/12/14 12:16:18;;;;;;;0.90;0.90;;;;;;;;;;6179112;23;20196;-74
2022/12/14 12:18:44;;;;;;;0.97;0.97;;;;;;;;;;6178854;23;20557;-75
2022/12/14 12:21:14;;;;;;;0.80;0.80;;;;;;;;;;6179276;23;20172;-75
2022/12/14 12:23:46;;;;;;;0.80;0.80;;;;;;;;;;6178418;22;20172;-76
2022/12/14 12:26:15;;;;;;;0.90;0.90;;;;;;;;;;6178842;23;20631;-77
2022/12/14 12:28:43;;;;;;;0.83;0.83;;;;;;;;;;6179148;23;20148;-76
2022/12/14 12:31:14;;;;;;;0.90;0.90;;;;;;;;;;6176773;23;20156;-75
2022/12/14 12:36:18;;;;;;;0.90;0.90;;;;;;;;;;6231517;22;20213;-84
2022/12/14 12:38:54;;;;;;;0.97;0.97;;;;;;;;;;6234251;23;20174;-84
2022/12/14 12:41:20;;;;;;;0.90;0.90;;;;;;;;;;6232971;23;20485;-82
2022/12/14 12:44:00;;;;;;;0.90;0.90;;;;;;;;;;6228151;22;20180;-84
2022/12/14 12:46:28;;;;;;;1.00;1.00;;;;;;;;;;6234346;23;20127;-83
2022/12/14 12:49:00;;;;;;;0.97;0.97;;;;;;;;;;6220508;23;20185;-79
2022/12/14 12:51:38;;;;;;;0.90;0.90;;;;;;;;;;6218162;23;20151;-80
2022/12/14 12:54:07;;;;;;;0.90;0.90;;;;;;;;;;6219511;22;20175;-77
2022/12/14 12:56:41;;;;;;;0.90;0.90;;;;;;;;;;6217428;23;20207;-79
2022/12/14 12:59:14;;;;;;;0.90;0.90;;;;;;;;;;6216382;23;20234;-80
2022/12/14 13:01:42;;;;;;;0.90;0.90;;;;;;;;;;6215968;23;20158;-79
2022/12/14 13:04:11;;;;;;;0.80;0.80;;;;;;;;;;6212196;22;20179;-78
2022/12/14 13:06:45;;;;;;;0.90;0.90;;;;;;;;;;6212190;23;20166;-77
2022/12/14 13:09:17;;;;;;;0.90;0.90;;;;;;;;;;6210599;23;20143;-78
2022/12/14 13:11:43;;;;;;;0.80;0.80;;;;;;;;;;6209882;23;20152;-78
2022/12/14 13:14:28;;;;;;;0.90;0.90;;;;;;;;;;6210046;22;20194;-78
2022/12/14 13:16:54;;;;;;;0.90;0.90;;;;;;;;;;6210240;23;20202;-79
2022/12/14 13:19:24;;;;;;;1.00;1.00;;;;;;;;;;6210033;23;20457;-78
2022/12/14 13:21:51;;;;;;;0.90;0.90;;;;;;;;;;6210413;23;20205;-83
2022/12/14 13:24:19;;;;;;;0.80;0.80;;;;;;;;;;6210096;22;20167;-79
2022/12/14 13:27:07;;;;;;;0.87;0.87;;;;;;;;;;6210489;23;20155;-78
2022/12/14 13:29:39;;;;;;;1.00;1.00;;;;;;;;;;6210652;23;20189;-83
2022/12/14 13:32:05;;;;;;;0.93;0.93;;;;;;;;;;6210229;23;20610;-80
2022/12/14 13:34:38;;;;;;;0.90;0.90;;;;;;;;;;6210647;22;20193;-79
2022/12/14 13:37:23;;;;;;;0.90;0.90;;;;;;;;;;6210983;23;20655;-78
2022/12/14 13:39:55;;;;;;;0.90;0.90;;;;;;;;;;6211021;23;20233;-78
2022/12/14 13:42:39;;;;;;;0.90;0.90;;;;;;;;;;6210146;23;20155;-77
2022/12/14 13:45:05;;;;;;;0.90;0.90;;;;;;;;;;6210614;23;20148;-78
2022/12/14 13:47:38;;;;;;;1.00;1.00;;;;;;;;;;6211073;23;20152;-79
2022/12/14 13:50:05;;;;;;;0.90;0.90;;;;;;;;;;6211022;23;20175;-78
2022/12/14 13:52:31;;;;;;;0.83;0.83;;;;;;;;;;6211752;22;20151;-80
2022/12/14 13:54:58;;;;;;;0.90;0.90;;;;;;;;;;6211132;23;20550;-84
2022/12/14 13:57:25;;;;;;;0.87;0.87;;;;;;;;;;6210698;23;20202;-78
2022/12/14 13:59:57;;;;;;;0.93;0.93;;;;;;;;;;6210914;23;20187;-79
2022/12/14 14:02:29;;;;;;;0.80;0.80;;;;;;;;;;6210123;22;20306;-79
2022/12/14 14:05:14;;;;;;;0.90;0.90;;;;;;;;;;6210050;23;20208;-77
2022/12/14 14:08:01;;;;;;;0.90;0.90;;;;;;;;;;6211923;23;20159;-80
2022/12/14 14:10:37;;;;;;;0.90;0.90;;;;;;;;;;6207969;23;20540;-79
2022/12/14 14:13:21;;;;;;;0.90;0.90;;;;;;;;;;6209792;22;20182;-79
2022/12/14 14:15:50;;;;;;;0.90;0.90;;;;;;;;;;6210580;23;20183;-79
2022/12/14 14:18:19;;;;;;;0.80;0.80;;;;;;;;;;6209530;23;20261;-81
2022/12/14 14:21:04;;;;;;;0.90;0.90;;;;;;;;;;6211167;23;20163;-83
2022/12/14 14:23:31;;;;;;;0.80;0.80;;;;;;;;;;6211610;22;20167;-79
2022/12/14 14:26:15;;;;;;;0.70;0.70;;;;;;;;;;6210783;23;20204;-79
2022/12/14 14:28:41;;;;;;;0.90;0.90;;;;;;;;;;6213309;23;20243;-78
2022/12/14 14:31:07;;;;;;;0.90;0.90;;;;;;;;;;6211639;23;20465;-79
2022/12/14 14:33:54;;;;;;;0.90;0.90;;;;;;;;;;6216403;22;20171;-80
2022/12/14 14:36:35;;;;;;;0.90;0.90;;;;;;;;;;6219720;23;20195;-78
2022/12/14 14:39:02;;;;;;;0.90;0.90;;;;;;;;;;6222602;23;20443;-76
2022/12/14 14:41:35;;;;;;;0.90;0.90;;;;;;;;;;6211855;23;20143;-77
2022/12/14 14:44:03;;;;;;;0.80;0.80;;;;;;;;;;6210861;22;20224;-77
2022/12/14 14:46:38;;;;;;;0.90;0.90;;;;;;;;;;6212286;23;20151;-79
2022/12/14 14:49:05;;;;;;;0.90;0.90;;;;;;;;;;6212446;23;20254;-79
2022/12/14 14:51:35;;;;;;;0.80;0.80;;;;;;;;;;6212223;23;20182;-77
2022/12/14 14:54:19;;;;;;;1.00;1.00;;;;;;;;;;6211370;22;20224;-77
2022/12/14 14:56:46;;;;;;;0.90;0.90;;;;;;;;;;6212259;23;20191;-79
2022/12/14 14:59:18;;;;;;;0.90;0.90;;;;;;;;;;6211472;23;20151;-78
2022/12/14 15:01:44;;;;;;;0.90;0.90;;;;;;;;;;6212836;23;20655;-78
2022/12/14 15:04:13;;;;;;;0.90;0.90;;;;;;;;;;6212042;22;20617;-78
2022/12/14 15:06:41;;;;;;;0.80;0.80;;;;;;;;;;6212317;23;20239;-79
2022/12/14 15:09:10;;;;;;;0.90;0.90;;;;;;;;;;6213215;23;20522;-81
2022/12/14 15:11:42;;;;;;;0.90;0.90;;;;;;;;;;6212964;23;20163;-79